sensor_id;sensor_type;location;lat;lon;timestamp;P1;durP1;ratioP1;P2;durP2;ratioP2
48845;SDS011;34665;51.886;5.436;2022-10-16T00:00:31;11.70;;;3.45;;
48845;SDS011;34665;51.886;5.436;2022-10-16T00:02:56;8.85;;;2.92;;
48845;SDS011;34665;51.886;5.436;2022-10-16T00:05:22;8.68;;;3.03;;
48845;SDS011;34665;51.886;5.436;2022-10-16T00:07:47;6.78;;;2.65;;
48845;SDS011;34665;51.886;5.436;2022-10-16T00:10:13;8.15;;;3.05;;
48845;SDS011;34665;51.886;5.436;2022-10-16T00:12:38;10.85;;;2.33;;
48845;SDS011;34665;51.886;5.436;2022-10-16T00:15:04;6.20;;;2.67;;
48845;SDS011;34665;51.886;5.436;2022-10-16T00:17:31;15.97;;;3.87;;
48845;SDS011;34665;51.886;5.436;2022-10-16T00:19:57;3.75;;;2.15;;
48845;SDS011;34665;51.886;5.436;2022-10-16T00:22:23;7.53;;;2.80;;
48845;SDS011;34665;51.886;5.436;2022-10-16T00:24:48;8.90;;;2.80;;
48845;SDS011;34665;51.886;5.436;2022-10-16T00:27:14;10.32;;;3.30;;
48845;SDS011;34665;51.886;5.436;2022-10-16T00:29:39;9.80;;;3.37;;
48845;SDS011;34665;51.886;5.436;2022-10-16T00:32:04;5.90;;;2.93;;
48845;SDS011;34665;51.886;5.436;2022-10-16T00:34:30;7.57;;;2.83;;
48845;SDS011;34665;51.886;5.436;2022-10-16T00:36:56;12.38;;;2.90;;
48845;SDS011;34665;51.886;5.436;2022-10-16T00:39:21;8.50;;;2.78;;
48845;SDS011;34665;51.886;5.436;2022-10-16T00:41:47;9.88;;;2.70;;
48845;SDS011;34665;51.886;5.436;2022-10-16T00:47:10;6.70;;;2.73;;
48845;SDS011;34665;51.886;5.436;2022-10-16T00:49:38;6.10;;;2.90;;
48845;SDS011;34665;51.886;5.436;2022-10-16T00:52:04;8.70;;;3.38;;
48845;SDS011;34665;51.886;5.436;2022-10-16T00:54:31;10.23;;;2.92;;
48845;SDS011;34665;51.886;5.436;2022-10-16T00:57:00;6.87;;;2.50;;
48845;SDS011;34665;51.886;5.436;2022-10-16T00:59:29;9.43;;;3.07;;
48845;SDS011;34665;51.886;5.436;2022-10-16T01:02:00;6.50;;;2.87;;
48845;SDS011;34665;51.886;5.436;2022-10-16T01:04:28;6.20;;;2.97;;
48845;SDS011;34665;51.886;5.436;2022-10-16T01:10:09;5.77;;;3.20;;
48845;SDS011;34665;51.886;5.436;2022-10-16T01:15:42;6.47;;;2.77;;
48845;SDS011;34665;51.886;5.436;2022-10-16T01:21:24;6.93;;;3.57;;
48845;SDS011;34665;51.886;5.436;2022-10-16T01:27:01;5.87;;;3.10;;
48845;SDS011;34665;51.886;5.436;2022-10-16T01:29:58;7.93;;;3.90;;
48845;SDS011;34665;51.886;5.436;2022-10-16T01:32:32;11.07;;;5.67;;
48845;SDS011;34665;51.886;5.436;2022-10-16T01:35:11;14.33;;;5.77;;
48845;SDS011;34665;51.886;5.436;2022-10-16T01:37:44;17.00;;;7.03;;
48845;SDS011;34665;51.886;5.436;2022-10-16T01:40:16;14.13;;;7.37;;
48845;SDS011;34665;51.886;5.436;2022-10-16T01:42:48;12.20;;;7.00;;
48845;SDS011;34665;51.886;5.436;2022-10-16T01:45:19;9.57;;;5.47;;
48845;SDS011;34665;51.886;5.436;2022-10-16T01:47:46;8.50;;;5.17;;
48845;SDS011;34665;51.886;5.436;2022-10-16T01:50:15;9.20;;;4.27;;
48845;SDS011;34665;51.886;5.436;2022-10-16T01:52:44;10.60;;;6.20;;
48845;SDS011;34665;51.886;5.436;2022-10-16T01:55:14;9.30;;;3.80;;
48845;SDS011;34665;51.886;5.436;2022-10-16T01:57:44;9.90;;;3.63;;
48845;SDS011;34665;51.886;5.436;2022-10-16T02:00:13;8.17;;;3.47;;
48845;SDS011;34665;51.886;5.436;2022-10-16T02:02:42;5.53;;;3.13;;
48845;SDS011;34665;51.886;5.436;2022-10-16T02:05:13;7.30;;;2.60;;
48845;SDS011;34665;51.886;5.436;2022-10-16T02:07:43;7.10;;;2.70;;
48845;SDS011;34665;51.886;5.436;2022-10-16T02:10:09;6.45;;;3.08;;
48845;SDS011;34665;51.886;5.436;2022-10-16T02:12:36;8.13;;;3.27;;
48845;SDS011;34665;51.886;5.436;2022-10-16T02:15:07;7.63;;;2.80;;
48845;SDS011;34665;51.886;5.436;2022-10-16T02:17:34;7.13;;;2.72;;
48845;SDS011;34665;51.886;5.436;2022-10-16T02:20:00;6.10;;;2.53;;
48845;SDS011;34665;51.886;5.436;2022-10-16T02:22:28;9.25;;;3.03;;
48845;SDS011;34665;51.886;5.436;2022-10-16T02:25:08;9.00;;;2.90;;
48845;SDS011;34665;51.886;5.436;2022-10-16T02:27:49;8.90;;;5.27;;
48845;SDS011;34665;51.886;5.436;2022-10-16T02:30:19;12.33;;;5.97;;
48845;SDS011;34665;51.886;5.436;2022-10-16T02:32:49;12.10;;;7.47;;
48845;SDS011;34665;51.886;5.436;2022-10-16T02:35:17;10.83;;;5.80;;
48845;SDS011;34665;51.886;5.436;2022-10-16T02:37:45;9.87;;;4.77;;
48845;SDS011;34665;51.886;5.436;2022-10-16T02:40:12;12.67;;;4.40;;
48845;SDS011;34665;51.886;5.436;2022-10-16T02:42:39;5.50;;;2.83;;
48845;SDS011;34665;51.886;5.436;2022-10-16T02:47:33;5.43;;;2.65;;
48845;SDS011;34665;51.886;5.436;2022-10-16T02:49:58;4.93;;;3.03;;
48845;SDS011;34665;51.886;5.436;2022-10-16T02:52:24;4.13;;;2.72;;
48845;SDS011;34665;51.886;5.436;2022-10-16T02:54:50;6.97;;;2.72;;
48845;SDS011;34665;51.886;5.436;2022-10-16T02:57:15;5.40;;;2.63;;
48845;SDS011;34665;51.886;5.436;2022-10-16T02:59:41;10.70;;;3.70;;
48845;SDS011;34665;51.886;5.436;2022-10-16T03:02:06;9.43;;;3.45;;
48845;SDS011;34665;51.886;5.436;2022-10-16T03:04:32;11.88;;;4.50;;
48845;SDS011;34665;51.886;5.436;2022-10-16T03:06:57;9.32;;;4.03;;
48845;SDS011;34665;51.886;5.436;2022-10-16T03:09:23;9.55;;;3.72;;
48845;SDS011;34665;51.886;5.436;2022-10-16T03:11:48;8.02;;;4.50;;
48845;SDS011;34665;51.886;5.436;2022-10-16T03:14:14;11.37;;;5.33;;
48845;SDS011;34665;51.886;5.436;2022-10-16T03:16:39;10.87;;;5.67;;
48845;SDS011;34665;51.886;5.436;2022-10-16T03:19:05;18.73;;;8.67;;
48845;SDS011;34665;51.886;5.436;2022-10-16T03:21:30;12.17;;;6.43;;
48845;SDS011;34665;51.886;5.436;2022-10-16T03:23:56;11.57;;;6.85;;
48845;SDS011;34665;51.886;5.436;2022-10-16T03:26:21;17.38;;;6.25;;
48845;SDS011;34665;51.886;5.436;2022-10-16T03:28:47;10.00;;;5.97;;
48845;SDS011;34665;51.886;5.436;2022-10-16T03:31:12;8.52;;;5.32;;
48845;SDS011;34665;51.886;5.436;2022-10-16T03:33:38;8.25;;;4.90;;
48845;SDS011;34665;51.886;5.436;2022-10-16T03:36:03;7.77;;;3.73;;
48845;SDS011;34665;51.886;5.436;2022-10-16T03:38:29;7.95;;;3.03;;
48845;SDS011;34665;51.886;5.436;2022-10-16T03:40:55;5.50;;;2.67;;
48845;SDS011;34665;51.886;5.436;2022-10-16T03:43:20;3.80;;;2.15;;
48845;SDS011;34665;51.886;5.436;2022-10-16T03:45:45;4.73;;;2.47;;
48845;SDS011;34665;51.886;5.436;2022-10-16T03:48:11;8.57;;;2.70;;
48845;SDS011;34665;51.886;5.436;2022-10-16T03:50:37;5.70;;;2.58;;
48845;SDS011;34665;51.886;5.436;2022-10-16T03:53:02;7.00;;;2.73;;
48845;SDS011;34665;51.886;5.436;2022-10-16T03:55:28;4.25;;;2.03;;
48845;SDS011;34665;51.886;5.436;2022-10-16T03:57:54;4.85;;;2.33;;
48845;SDS011;34665;51.886;5.436;2022-10-16T04:00:19;5.20;;;2.20;;
48845;SDS011;34665;51.886;5.436;2022-10-16T04:02:45;5.82;;;2.50;;
48845;SDS011;34665;51.886;5.436;2022-10-16T04:05:10;9.50;;;2.27;;
48845;SDS011;34665;51.886;5.436;2022-10-16T04:07:35;3.67;;;2.03;;
48845;SDS011;34665;51.886;5.436;2022-10-16T04:10:02;4.38;;;2.03;;
48845;SDS011;34665;51.886;5.436;2022-10-16T04:12:28;5.97;;;2.22;;
48845;SDS011;34665;51.886;5.436;2022-10-16T04:14:53;9.23;;;2.80;;
48845;SDS011;34665;51.886;5.436;2022-10-16T04:17:19;5.90;;;2.40;;
48845;SDS011;34665;51.886;5.436;2022-10-16T04:19:44;5.00;;;2.30;;
48845;SDS011;34665;51.886;5.436;2022-10-16T04:22:10;6.10;;;2.80;;
48845;SDS011;34665;51.886;5.436;2022-10-16T04:24:35;4.77;;;2.80;;
48845;SDS011;34665;51.886;5.436;2022-10-16T04:27:01;6.93;;;2.70;;
48845;SDS011;34665;51.886;5.436;2022-10-16T04:29:26;14.85;;;2.95;;
48845;SDS011;34665;51.886;5.436;2022-10-16T04:31:52;6.00;;;2.35;;
48845;SDS011;34665;51.886;5.436;2022-10-16T04:34:18;6.43;;;2.40;;
48845;SDS011;34665;51.886;5.436;2022-10-16T04:36:43;9.88;;;2.45;;
48845;SDS011;34665;51.886;5.436;2022-10-16T04:39:11;5.93;;;2.10;;
48845;SDS011;34665;51.886;5.436;2022-10-16T04:41:37;11.88;;;2.42;;
48845;SDS011;34665;51.886;5.436;2022-10-16T04:44:02;12.27;;;3.90;;
48845;SDS011;34665;51.886;5.436;2022-10-16T04:46:28;13.48;;;6.03;;
48845;SDS011;34665;51.886;5.436;2022-10-16T04:48:53;12.83;;;7.13;;
48845;SDS011;34665;51.886;5.436;2022-10-16T04:51:19;15.37;;;7.73;;
48845;SDS011;34665;51.886;5.436;2022-10-16T04:53:46;15.87;;;8.20;;
48845;SDS011;34665;51.886;5.436;2022-10-16T04:56:12;19.40;;;8.97;;
48845;SDS011;34665;51.886;5.436;2022-10-16T04:58:37;17.53;;;8.00;;
48845;SDS011;34665;51.886;5.436;2022-10-16T05:01:03;15.87;;;8.23;;
48845;SDS011;34665;51.886;5.436;2022-10-16T05:03:28;19.67;;;8.10;;
48845;SDS011;34665;51.886;5.436;2022-10-16T05:05:54;18.00;;;10.38;;
48845;SDS011;34665;51.886;5.436;2022-10-16T05:08:19;15.73;;;7.90;;
48845;SDS011;34665;51.886;5.436;2022-10-16T05:10:45;9.50;;;5.73;;
48845;SDS011;34665;51.886;5.436;2022-10-16T05:13:10;5.30;;;3.10;;
48845;SDS011;34665;51.886;5.436;2022-10-16T05:15:36;8.57;;;3.10;;
48845;SDS011;34665;51.886;5.436;2022-10-16T05:18:01;7.88;;;2.72;;
48845;SDS011;34665;51.886;5.436;2022-10-16T05:20:28;5.10;;;2.33;;
48845;SDS011;34665;51.886;5.436;2022-10-16T05:22:53;5.07;;;2.50;;
48845;SDS011;34665;51.886;5.436;2022-10-16T05:25:19;6.35;;;2.63;;
48845;SDS011;34665;51.886;5.436;2022-10-16T05:27:47;3.87;;;2.10;;
48845;SDS011;34665;51.886;5.436;2022-10-16T05:30:14;6.60;;;2.53;;
48845;SDS011;34665;51.886;5.436;2022-10-16T05:32:41;3.90;;;2.43;;
48845;SDS011;34665;51.886;5.436;2022-10-16T05:35:07;4.77;;;2.73;;
48845;SDS011;34665;51.886;5.436;2022-10-16T05:37:33;8.20;;;2.35;;
48845;SDS011;34665;51.886;5.436;2022-10-16T05:39:58;5.20;;;2.53;;
48845;SDS011;34665;51.886;5.436;2022-10-16T05:42:23;9.80;;;2.20;;
48845;SDS011;34665;51.886;5.436;2022-10-16T05:44:49;10.40;;;2.47;;
48845;SDS011;34665;51.886;5.436;2022-10-16T05:47:15;5.15;;;2.53;;
48845;SDS011;34665;51.886;5.436;2022-10-16T05:49:40;9.45;;;2.45;;
48845;SDS011;34665;51.886;5.436;2022-10-16T05:52:06;10.48;;;3.97;;
48845;SDS011;34665;51.886;5.436;2022-10-16T05:54:31;10.87;;;5.33;;
48845;SDS011;34665;51.886;5.436;2022-10-16T05:56:57;11.20;;;5.03;;
48845;SDS011;34665;51.886;5.436;2022-10-16T05:59:22;11.77;;;5.07;;
48845;SDS011;34665;51.886;5.436;2022-10-16T06:01:48;11.63;;;5.13;;
48845;SDS011;34665;51.886;5.436;2022-10-16T06:04:14;18.38;;;8.35;;
48845;SDS011;34665;51.886;5.436;2022-10-16T06:06:40;17.57;;;8.70;;
48845;SDS011;34665;51.886;5.436;2022-10-16T06:09:06;16.05;;;8.43;;
48845;SDS011;34665;51.886;5.436;2022-10-16T06:11:32;14.68;;;7.80;;
48845;SDS011;34665;51.886;5.436;2022-10-16T06:13:59;14.20;;;6.67;;
48845;SDS011;34665;51.886;5.436;2022-10-16T06:16:28;12.47;;;6.47;;
48845;SDS011;34665;51.886;5.436;2022-10-16T06:18:55;8.03;;;4.93;;
48845;SDS011;34665;51.886;5.436;2022-10-16T06:21:22;7.03;;;4.10;;
48845;SDS011;34665;51.886;5.436;2022-10-16T06:23:52;5.73;;;3.03;;
48845;SDS011;34665;51.886;5.436;2022-10-16T06:26:20;15.27;;;3.83;;
48845;SDS011;34665;51.886;5.436;2022-10-16T06:28:47;6.90;;;2.97;;
48845;SDS011;34665;51.886;5.436;2022-10-16T06:31:13;4.57;;;2.05;;
48845;SDS011;34665;51.886;5.436;2022-10-16T06:33:38;5.70;;;2.35;;
48845;SDS011;34665;51.886;5.436;2022-10-16T06:36:06;4.97;;;2.30;;
48845;SDS011;34665;51.886;5.436;2022-10-16T06:38:34;9.03;;;2.40;;
48845;SDS011;34665;51.886;5.436;2022-10-16T06:41:01;3.80;;;2.22;;
48845;SDS011;34665;51.886;5.436;2022-10-16T06:43:28;4.32;;;1.95;;
48845;SDS011;34665;51.886;5.436;2022-10-16T06:45:58;12.03;;;2.63;;
48845;SDS011;34665;51.886;5.436;2022-10-16T06:48:24;3.43;;;2.23;;
48845;SDS011;34665;51.886;5.436;2022-10-16T06:51:03;3.85;;;2.22;;
48845;SDS011;34665;51.886;5.436;2022-10-16T06:53:32;8.73;;;2.90;;
48845;SDS011;34665;51.886;5.436;2022-10-16T06:56:06;6.43;;;2.80;;
48845;SDS011;34665;51.886;5.436;2022-10-16T06:58:39;8.63;;;4.43;;
48845;SDS011;34665;51.886;5.436;2022-10-16T07:01:06;11.17;;;5.60;;
48845;SDS011;34665;51.886;5.436;2022-10-16T07:03:38;13.93;;;6.53;;
48845;SDS011;34665;51.886;5.436;2022-10-16T07:06:05;16.53;;;9.00;;
48845;SDS011;34665;51.886;5.436;2022-10-16T07:08:33;16.00;;;7.23;;
48845;SDS011;34665;51.886;5.436;2022-10-16T07:11:10;11.33;;;5.33;;
48845;SDS011;34665;51.886;5.436;2022-10-16T07:13:39;16.07;;;4.57;;
48845;SDS011;34665;51.886;5.436;2022-10-16T07:16:07;6.80;;;3.90;;
48845;SDS011;34665;51.886;5.436;2022-10-16T07:18:38;9.10;;;3.83;;
48845;SDS011;34665;51.886;5.436;2022-10-16T07:23:35;5.73;;;2.80;;
48845;SDS011;34665;51.886;5.436;2022-10-16T07:26:02;9.73;;;3.33;;
48845;SDS011;34665;51.886;5.436;2022-10-16T07:28:28;6.80;;;3.27;;
48845;SDS011;34665;51.886;5.436;2022-10-16T07:30:54;6.93;;;2.70;;
48845;SDS011;34665;51.886;5.436;2022-10-16T07:33:20;12.02;;;2.83;;
48845;SDS011;34665;51.886;5.436;2022-10-16T07:35:48;6.33;;;2.97;;
48845;SDS011;34665;51.886;5.436;2022-10-16T07:38:18;6.87;;;2.77;;
48845;SDS011;34665;51.886;5.436;2022-10-16T07:40:44;7.63;;;2.28;;
48845;SDS011;34665;51.886;5.436;2022-10-16T07:43:10;5.13;;;2.33;;
48845;SDS011;34665;51.886;5.436;2022-10-16T07:45:36;13.18;;;3.25;;
48845;SDS011;34665;51.886;5.436;2022-10-16T07:48:03;9.20;;;3.30;;
48845;SDS011;34665;51.886;5.436;2022-10-16T07:50:29;6.47;;;3.28;;
48845;SDS011;34665;51.886;5.436;2022-10-16T07:52:54;6.35;;;3.30;;
48845;SDS011;34665;51.886;5.436;2022-10-16T07:55:20;8.30;;;3.17;;
48845;SDS011;34665;51.886;5.436;2022-10-16T07:57:45;11.57;;;3.15;;
48845;SDS011;34665;51.886;5.436;2022-10-16T08:00:11;8.48;;;3.20;;
48845;SDS011;34665;51.886;5.436;2022-10-16T08:02:41;6.70;;;3.27;;
48845;SDS011;34665;51.886;5.436;2022-10-16T08:05:07;7.90;;;2.93;;
48845;SDS011;34665;51.886;5.436;2022-10-16T08:07:33;5.75;;;2.42;;
48845;SDS011;34665;51.886;5.436;2022-10-16T08:09:59;6.07;;;2.33;;
48845;SDS011;34665;51.886;5.436;2022-10-16T08:12:25;5.20;;;2.73;;
48845;SDS011;34665;51.886;5.436;2022-10-16T08:14:50;5.53;;;2.40;;
48845;SDS011;34665;51.886;5.436;2022-10-16T08:17:16;9.43;;;2.27;;
48845;SDS011;34665;51.886;5.436;2022-10-16T08:19:45;9.77;;;2.47;;
48845;SDS011;34665;51.886;5.436;2022-10-16T08:22:11;6.33;;;2.77;;
48845;SDS011;34665;51.886;5.436;2022-10-16T08:24:37;8.02;;;2.03;;
48845;SDS011;34665;51.886;5.436;2022-10-16T08:27:02;8.40;;;2.47;;
48845;SDS011;34665;51.886;5.436;2022-10-16T08:29:28;5.45;;;1.92;;
48845;SDS011;34665;51.886;5.436;2022-10-16T08:31:54;6.90;;;2.08;;
48845;SDS011;34665;51.886;5.436;2022-10-16T08:34:19;8.70;;;2.10;;
48845;SDS011;34665;51.886;5.436;2022-10-16T08:36:45;27.33;;;3.10;;
48845;SDS011;34665;51.886;5.436;2022-10-16T08:39:12;3.58;;;1.75;;
48845;SDS011;34665;51.886;5.436;2022-10-16T08:50:12;6.50;;;1.60;;
48845;SDS011;34665;51.886;5.436;2022-10-16T08:52:43;6.23;;;2.07;;
48845;SDS011;34665;51.886;5.436;2022-10-16T08:55:28;4.57;;;1.77;;
48845;SDS011;34665;51.886;5.436;2022-10-16T08:58:13;6.57;;;1.70;;
48845;SDS011;34665;51.886;5.436;2022-10-16T09:00:40;3.87;;;1.63;;
48845;SDS011;34665;51.886;5.436;2022-10-16T09:11:21;3.77;;;1.43;;
48845;SDS011;34665;51.886;5.436;2022-10-16T09:14:07;6.33;;;1.93;;
48845;SDS011;34665;51.886;5.436;2022-10-16T09:17:15;7.27;;;2.60;;
48845;SDS011;34665;51.886;5.436;2022-10-16T09:19:51;8.30;;;1.73;;
48845;SDS011;34665;51.886;5.436;2022-10-16T09:22:27;10.60;;;1.90;;
48845;SDS011;34665;51.886;5.436;2022-10-16T09:24:54;5.70;;;2.07;;
48845;SDS011;34665;51.886;5.436;2022-10-16T09:27:24;10.13;;;2.30;;
48845;SDS011;34665;51.886;5.436;2022-10-16T09:29:52;9.03;;;2.20;;
48845;SDS011;34665;51.886;5.436;2022-10-16T09:32:19;8.37;;;1.73;;
48845;SDS011;34665;51.886;5.436;2022-10-16T09:34:47;7.97;;;1.77;;
48845;SDS011;34665;51.886;5.436;2022-10-16T09:37:17;8.23;;;2.07;;
48845;SDS011;34665;51.886;5.436;2022-10-16T09:39:54;13.33;;;2.37;;
48845;SDS011;34665;51.886;5.436;2022-10-16T09:42:24;8.57;;;2.33;;
48845;SDS011;34665;51.886;5.436;2022-10-16T09:44:55;13.63;;;1.83;;
48845;SDS011;34665;51.886;5.436;2022-10-16T09:47:22;4.47;;;1.50;;
48845;SDS011;34665;51.886;5.436;2022-10-16T09:49:55;9.30;;;1.97;;
48845;SDS011;34665;51.886;5.436;2022-10-16T09:52:40;8.37;;;2.13;;
48845;SDS011;34665;51.886;5.436;2022-10-16T09:57:52;14.75;;;2.22;;
48845;SDS011;34665;51.886;5.436;2022-10-16T10:00:19;9.07;;;1.90;;
48845;SDS011;34665;51.886;5.436;2022-10-16T10:02:45;7.78;;;2.08;;
48845;SDS011;34665;51.886;5.436;2022-10-16T10:08:06;10.02;;;2.25;;
48845;SDS011;34665;51.886;5.436;2022-10-16T10:10:42;9.68;;;2.60;;
48845;SDS011;34665;51.886;5.436;2022-10-16T10:15:45;9.15;;;2.03;;
48845;SDS011;34665;51.886;5.436;2022-10-16T10:20:58;9.57;;;2.00;;
48845;SDS011;34665;51.886;5.436;2022-10-16T10:23:26;7.35;;;1.70;;
48845;SDS011;34665;51.886;5.436;2022-10-16T10:28:28;8.35;;;1.77;;
48845;SDS011;34665;51.886;5.436;2022-10-16T10:31:26;10.73;;;1.77;;
48845;SDS011;34665;51.886;5.436;2022-10-16T10:34:25;9.80;;;2.28;;
48845;SDS011;34665;51.886;5.436;2022-10-16T10:37:04;9.60;;;1.77;;
48845;SDS011;34665;51.886;5.436;2022-10-16T10:39:43;10.20;;;2.70;;
48845;SDS011;34665;51.886;5.436;2022-10-16T10:42:26;6.53;;;1.98;;
48845;SDS011;34665;51.886;5.436;2022-10-16T10:45:16;10.00;;;2.08;;
48845;SDS011;34665;51.886;5.436;2022-10-16T10:48:11;10.00;;;1.77;;
48845;SDS011;34665;51.886;5.436;2022-10-16T10:50:56;11.95;;;2.17;;
48845;SDS011;34665;51.886;5.436;2022-10-16T10:53:37;14.45;;;2.72;;
48845;SDS011;34665;51.886;5.436;2022-10-16T11:02:23;11.00;;;2.25;;
48845;SDS011;34665;51.886;5.436;2022-10-16T11:05:00;8.85;;;1.75;;
48845;SDS011;34665;51.886;5.436;2022-10-16T11:07:28;7.97;;;1.90;;
48845;SDS011;34665;51.886;5.436;2022-10-16T11:10:12;11.27;;;1.73;;
48845;SDS011;34665;51.886;5.436;2022-10-16T11:12:42;12.57;;;2.42;;
48845;SDS011;34665;51.886;5.436;2022-10-16T11:15:14;13.25;;;2.35;;
48845;SDS011;34665;51.886;5.436;2022-10-16T11:17:59;9.07;;;1.85;;
48845;SDS011;34665;51.886;5.436;2022-10-16T11:20:37;8.38;;;1.92;;
48845;SDS011;34665;51.886;5.436;2022-10-16T11:23:15;9.30;;;1.38;;
48845;SDS011;34665;51.886;5.436;2022-10-16T11:25:48;9.18;;;1.50;;
48845;SDS011;34665;51.886;5.436;2022-10-16T11:28:15;9.68;;;1.80;;
48845;SDS011;34665;51.886;5.436;2022-10-16T11:33:24;12.35;;;2.40;;
48845;SDS011;34665;51.886;5.436;2022-10-16T11:36:11;11.73;;;2.00;;
48845;SDS011;34665;51.886;5.436;2022-10-16T11:41:29;9.15;;;2.00;;
48845;SDS011;34665;51.886;5.436;2022-10-16T11:47:01;10.75;;;2.17;;
48845;SDS011;34665;51.886;5.436;2022-10-16T11:49:30;11.40;;;2.53;;
48845;SDS011;34665;51.886;5.436;2022-10-16T11:55:14;13.80;;;2.65;;
48845;SDS011;34665;51.886;5.436;2022-10-16T11:57:47;8.35;;;1.83;;
48845;SDS011;34665;51.886;5.436;2022-10-16T12:05:54;8.45;;;1.60;;
48845;SDS011;34665;51.886;5.436;2022-10-16T12:08:28;12.40;;;2.13;;
48845;SDS011;34665;51.886;5.436;2022-10-16T12:11:05;13.18;;;2.65;;
48845;SDS011;34665;51.886;5.436;2022-10-16T12:13:36;11.90;;;2.13;;
48845;SDS011;34665;51.886;5.436;2022-10-16T12:16:04;7.30;;;1.70;;
48845;SDS011;34665;51.886;5.436;2022-10-16T12:18:39;11.10;;;2.15;;
48845;SDS011;34665;51.886;5.436;2022-10-16T12:21:06;9.73;;;1.80;;
48845;SDS011;34665;51.886;5.436;2022-10-16T12:23:36;11.57;;;2.10;;
48845;SDS011;34665;51.886;5.436;2022-10-16T12:26:04;14.40;;;2.70;;
48845;SDS011;34665;51.886;5.436;2022-10-16T12:28:31;10.93;;;1.98;;
48845;SDS011;34665;51.886;5.436;2022-10-16T12:31:02;11.10;;;2.05;;
48845;SDS011;34665;51.886;5.436;2022-10-16T12:33:30;18.00;;;4.45;;
48845;SDS011;34665;51.886;5.436;2022-10-16T12:35:59;8.75;;;2.67;;
48845;SDS011;34665;51.886;5.436;2022-10-16T12:38:27;11.68;;;2.95;;
48845;SDS011;34665;51.886;5.436;2022-10-16T12:40:59;12.50;;;3.10;;
48845;SDS011;34665;51.886;5.436;2022-10-16T12:43:34;12.10;;;2.45;;
48845;SDS011;34665;51.886;5.436;2022-10-16T12:48:40;9.65;;;2.63;;
48845;SDS011;34665;51.886;5.436;2022-10-16T12:51:23;13.65;;;2.13;;
48845;SDS011;34665;51.886;5.436;2022-10-16T12:54:37;10.65;;;1.70;;
48845;SDS011;34665;51.886;5.436;2022-10-16T12:57:01;9.82;;;2.20;;
48845;SDS011;34665;51.886;5.436;2022-10-16T13:27:09;13.32;;;2.60;;
48845;SDS011;34665;51.886;5.436;2022-10-16T13:29:52;17.40;;;2.35;;
48845;SDS011;34665;51.886;5.436;2022-10-16T13:32:24;9.63;;;2.17;;
48845;SDS011;34665;51.886;5.436;2022-10-16T13:34:50;9.00;;;1.85;;
48845;SDS011;34665;51.886;5.436;2022-10-16T13:37:20;8.90;;;2.15;;
48845;SDS011;34665;51.886;5.436;2022-10-16T13:39:48;10.82;;;1.77;;
48845;SDS011;34665;51.886;5.436;2022-10-16T13:42:24;8.57;;;2.08;;
48845;SDS011;34665;51.886;5.436;2022-10-16T13:44:53;12.43;;;1.77;;
48845;SDS011;34665;51.886;5.436;2022-10-16T13:47:27;10.65;;;1.95;;
48845;SDS011;34665;51.886;5.436;2022-10-16T13:50:00;8.20;;;2.03;;
48845;SDS011;34665;51.886;5.436;2022-10-16T13:52:27;10.95;;;2.40;;
48845;SDS011;34665;51.886;5.436;2022-10-16T13:54:53;12.77;;;2.17;;
48845;SDS011;34665;51.886;5.436;2022-10-16T13:57:21;12.48;;;2.00;;
48845;SDS011;34665;51.886;5.436;2022-10-16T13:59:47;10.20;;;2.03;;
48845;SDS011;34665;51.886;5.436;2022-10-16T14:04:51;12.93;;;2.17;;
48845;SDS011;34665;51.886;5.436;2022-10-16T14:07:20;13.57;;;2.40;;
48845;SDS011;34665;51.886;5.436;2022-10-16T14:09:53;9.68;;;2.08;;
48845;SDS011;34665;51.886;5.436;2022-10-16T14:12:20;10.07;;;1.75;;
48845;SDS011;34665;51.886;5.436;2022-10-16T14:14:48;13.15;;;2.22;;
48845;SDS011;34665;51.886;5.436;2022-10-16T14:17:18;8.98;;;1.73;;
48845;SDS011;34665;51.886;5.436;2022-10-16T14:19:52;9.07;;;1.80;;
48845;SDS011;34665;51.886;5.436;2022-10-16T14:22:32;13.30;;;2.10;;
48845;SDS011;34665;51.886;5.436;2022-10-16T14:27:58;10.25;;;1.80;;
48845;SDS011;34665;51.886;5.436;2022-10-16T14:33:21;10.60;;;2.78;;
48845;SDS011;34665;51.886;5.436;2022-10-16T14:36:06;11.40;;;1.85;;
48845;SDS011;34665;51.886;5.436;2022-10-16T14:39:03;9.20;;;2.08;;
48845;SDS011;34665;51.886;5.436;2022-10-16T14:41:31;6.22;;;2.10;;
48845;SDS011;34665;51.886;5.436;2022-10-16T14:44:01;11.48;;;2.40;;
48845;SDS011;34665;51.886;5.436;2022-10-16T14:46:38;11.33;;;1.83;;
48845;SDS011;34665;51.886;5.436;2022-10-16T14:53:57;8.93;;;2.00;;
48845;SDS011;34665;51.886;5.436;2022-10-16T14:58:49;23.30;;;7.18;;
48845;SDS011;34665;51.886;5.436;2022-10-16T15:01:16;12.57;;;2.17;;
48845;SDS011;34665;51.886;5.436;2022-10-16T15:03:42;10.67;;;2.63;;
48845;SDS011;34665;51.886;5.436;2022-10-16T15:06:12;10.83;;;2.90;;
48845;SDS011;34665;51.886;5.436;2022-10-16T15:08:41;11.20;;;2.57;;
48845;SDS011;34665;51.886;5.436;2022-10-16T15:11:14;9.00;;;3.27;;
48845;SDS011;34665;51.886;5.436;2022-10-16T15:13:41;14.73;;;2.13;;
48845;SDS011;34665;51.886;5.436;2022-10-16T15:18:35;22.73;;;5.83;;
48845;SDS011;34665;51.886;5.436;2022-10-16T15:21:01;17.45;;;5.80;;
48845;SDS011;34665;51.886;5.436;2022-10-16T15:23:26;20.45;;;4.05;;
48845;SDS011;34665;51.886;5.436;2022-10-16T15:25:53;14.93;;;2.63;;
48845;SDS011;34665;51.886;5.436;2022-10-16T15:28:20;8.10;;;2.50;;
48845;SDS011;34665;51.886;5.436;2022-10-16T15:30:46;16.30;;;4.23;;
48845;SDS011;34665;51.886;5.436;2022-10-16T15:33:16;20.13;;;6.93;;
48845;SDS011;34665;51.886;5.436;2022-10-16T15:35:47;22.63;;;5.23;;
48845;SDS011;34665;51.886;5.436;2022-10-16T15:38:14;19.67;;;6.87;;
48845;SDS011;34665;51.886;5.436;2022-10-16T15:43:07;49.90;;;20.77;;
48845;SDS011;34665;51.886;5.436;2022-10-16T15:47:58;30.20;;;12.47;;
48845;SDS011;34665;51.886;5.436;2022-10-16T15:50:24;43.10;;;15.30;;
48845;SDS011;34665;51.886;5.436;2022-10-16T15:52:49;30.88;;;10.35;;
48845;SDS011;34665;51.886;5.436;2022-10-16T15:55:16;37.37;;;14.80;;
48845;SDS011;34665;51.886;5.436;2022-10-16T15:57:44;32.17;;;11.83;;
48845;SDS011;34665;51.886;5.436;2022-10-16T16:00:16;22.40;;;7.93;;
48845;SDS011;34665;51.886;5.436;2022-10-16T16:02:49;23.00;;;6.03;;
48845;SDS011;34665;51.886;5.436;2022-10-16T16:05:17;16.07;;;5.40;;
48845;SDS011;34665;51.886;5.436;2022-10-16T16:10:09;21.90;;;5.87;;
48845;SDS011;34665;51.886;5.436;2022-10-16T16:12:35;24.07;;;6.27;;
48845;SDS011;34665;51.886;5.436;2022-10-16T16:17:27;22.10;;;8.07;;
48845;SDS011;34665;51.886;5.436;2022-10-16T16:19:53;34.35;;;14.80;;
48845;SDS011;34665;51.886;5.436;2022-10-16T16:22:19;19.13;;;9.00;;
48845;SDS011;34665;51.886;5.436;2022-10-16T16:24:44;26.70;;;8.10;;
48845;SDS011;34665;51.886;5.436;2022-10-16T16:27:10;32.33;;;15.73;;
48845;SDS011;34665;51.886;5.436;2022-10-16T16:29:35;25.50;;;12.48;;
48845;SDS011;34665;51.886;5.436;2022-10-16T16:32:01;27.92;;;8.10;;
48845;SDS011;34665;51.886;5.436;2022-10-16T16:34:27;26.00;;;13.02;;
48845;SDS011;34665;51.886;5.436;2022-10-16T16:36:53;36.88;;;13.57;;
48845;SDS011;34665;51.886;5.436;2022-10-16T16:39:19;21.53;;;10.63;;
48845;SDS011;34665;51.886;5.436;2022-10-16T16:41:44;24.80;;;11.93;;
48845;SDS011;34665;51.886;5.436;2022-10-16T16:44:14;21.67;;;8.30;;
48845;SDS011;34665;51.886;5.436;2022-10-16T16:46:41;25.20;;;9.30;;
48845;SDS011;34665;51.886;5.436;2022-10-16T16:49:09;25.30;;;10.23;;
48845;SDS011;34665;51.886;5.436;2022-10-16T16:51:37;26.33;;;10.67;;
48845;SDS011;34665;51.886;5.436;2022-10-16T16:54:04;19.20;;;5.90;;
48845;SDS011;34665;51.886;5.436;2022-10-16T16:56:31;30.20;;;10.67;;
48845;SDS011;34665;51.886;5.436;2022-10-16T16:58:57;52.10;;;27.90;;
48845;SDS011;34665;51.886;5.436;2022-10-16T17:01:23;37.67;;;17.17;;
48845;SDS011;34665;51.886;5.436;2022-10-16T17:03:51;22.63;;;8.07;;